createdAt,value
2023-10-11T00:00:41.050Z,14.70
2023-10-11T00:03:19.670Z,14.90
2023-10-11T00:05:48.101Z,14.97
2023-10-11T00:08:20.337Z,15.57
2023-10-11T00:10:56.576Z,14.63
2023-10-11T00:13:25.077Z,14.93
2023-10-11T00:15:53.459Z,15.57
2023-10-11T00:18:27.660Z,14.77
2023-10-11T00:20:58.519Z,15.00
2023-10-11T00:23:27.105Z,15.43
2023-10-11T00:26:01.959Z,15.63
2023-10-11T00:28:33.402Z,14.93
2023-10-11T00:31:02.227Z,15.27
2023-10-11T00:33:39.004Z,14.93
2023-10-11T00:36:07.545Z,15.40
2023-10-11T00:38:44.671Z,15.43
2023-10-11T00:41:16.767Z,15.00
2023-10-11T00:43:50.747Z,15.27
2023-10-11T00:46:20.601Z,15.20
2023-10-11T00:49:07.264Z,14.97
2023-10-11T00:51:34.301Z,15.87
2023-10-11T00:54:02.886Z,15.43
2023-10-11T00:56:33.847Z,15.20
2023-10-11T00:59:04.129Z,16.77
2023-10-11T01:01:34.430Z,16.03
2023-10-11T01:04:01.988Z,16.67
2023-10-11T01:06:30.378Z,17.27
2023-10-11T01:08:56.998Z,16.87
2023-10-11T01:11:24.242Z,16.60
2023-10-11T01:13:53.923Z,16.07
2023-10-11T01:16:27.917Z,17.17
2023-10-11T01:18:55.008Z,18.43
2023-10-11T01:21:21.818Z,17.10
2023-10-11T01:23:49.737Z,17.20
2023-10-11T01:26:16.544Z,17.67
2023-10-11T01:28:49.194Z,18.03
2023-10-11T01:31:18.411Z,18.13
2023-10-11T01:33:50.369Z,18.03
2023-10-11T01:36:22.492Z,18.10
2023-10-11T01:38:49.290Z,17.90
2023-10-11T01:41:23.742Z,19.20
2023-10-11T01:43:51.644Z,19.27
2023-10-11T01:46:26.409Z,19.83
2023-10-11T01:48:57.050Z,18.20
2023-10-11T01:51:28.662Z,18.87
2023-10-11T01:53:56.350Z,18.63
2023-10-11T01:56:25.096Z,19.87
2023-10-11T01:58:52.485Z,17.70
2023-10-11T02:01:23.701Z,19.83
2023-10-11T02:04:00.986Z,20.63
2023-10-11T02:06:33.602Z,18.03
2023-10-11T02:09:01.459Z,18.10
2023-10-11T02:11:30.784Z,18.30
2023-10-11T02:13:58.958Z,19.20
2023-10-11T02:16:26.593Z,19.23
2023-10-11T02:18:59.760Z,18.37
2023-10-11T02:21:33.228Z,17.97
2023-10-11T02:24:00.635Z,19.93
2023-10-11T02:26:35.810Z,19.90
2023-10-11T02:29:07.850Z,21.70
2023-10-11T02:31:35.325Z,19.43
2023-10-11T02:34:14.938Z,19.17
2023-10-11T02:36:46.074Z,20.80
2023-10-11T02:39:19.284Z,20.27
2023-10-11T02:41:58.736Z,20.50
2023-10-11T02:44:26.487Z,20.07
2023-10-11T02:46:54.247Z,19.83
2023-10-11T02:49:21.183Z,20.37
2023-10-11T02:51:54.669Z,19.87
2023-10-11T02:54:22.120Z,20.17
2023-10-11T02:56:48.919Z,20.50
2023-10-11T02:59:25.477Z,20.60
2023-10-11T03:02:03.006Z,20.67
2023-10-11T03:04:34.172Z,20.53
2023-10-11T03:07:01.602Z,20.67
2023-10-11T03:09:31.599Z,19.33
2023-10-11T03:11:58.362Z,20.17
2023-10-11T03:14:26.139Z,21.90
2023-10-11T03:16:57.675Z,21.47
2023-10-11T03:19:25.677Z,21.20
2023-10-11T03:21:55.298Z,20.23
2023-10-11T03:24:22.996Z,20.80
2023-10-11T03:26:49.836Z,20.50
2023-10-11T03:29:20.052Z,21.20
2023-10-11T03:31:46.937Z,20.63
2023-10-11T03:34:13.702Z,21.23
2023-10-11T03:36:53.489Z,20.33
2023-10-11T03:39:37.179Z,22.00
2023-10-11T03:42:13.366Z,20.83
2023-10-11T03:44:48.030Z,21.13
2023-10-11T03:47:16.563Z,21.23
2023-10-11T03:49:43.293Z,23.17
2023-10-11T03:52:32.024Z,20.57
2023-10-11T03:55:12.037Z,23.03
2023-10-11T03:57:43.091Z,21.90
2023-10-11T04:00:24.013Z,21.20
2023-10-11T04:02:58.992Z,20.67
2023-10-11T04:05:35.780Z,22.50
2023-10-11T04:08:07.570Z,22.37
2023-10-11T04:10:41.209Z,19.87
2023-10-11T04:13:16.183Z,23.20
2023-10-11T04:15:43.517Z,23.10
2023-10-11T04:18:34.428Z,22.60
2023-10-11T04:21:11.530Z,21.87
2023-10-11T04:23:40.942Z,22.13
2023-10-11T04:26:24.074Z,23.30
2023-10-11T04:28:53.531Z,22.10
2023-10-11T04:31:32.349Z,23.73
2023-10-11T04:34:00.992Z,22.57
2023-10-11T04:36:30.369Z,22.17
2023-10-11T04:39:14.308Z,21.57
2023-10-11T04:41:50.298Z,22.53
2023-10-11T04:44:18.731Z,23.07
2023-10-11T04:46:56.390Z,21.83
2023-10-11T04:49:26.026Z,22.27
2023-10-11T04:51:57.818Z,22.00
2023-10-11T04:54:37.428Z,22.27
2023-10-11T04:57:21.475Z,23.23
2023-10-11T04:59:48.295Z,21.93
2023-10-11T05:02:25.298Z,23.13
2023-10-11T05:04:53.159Z,22.83
2023-10-11T05:07:23.192Z,22.70
2023-10-11T05:09:58.375Z,23.27
2023-10-11T05:12:25.604Z,22.53
2023-10-11T05:14:55.219Z,22.87
2023-10-11T05:17:25.082Z,23.07
2023-10-11T05:20:06.368Z,24.43
2023-10-11T05:22:50.690Z,22.47
2023-10-11T05:25:19.304Z,23.27
2023-10-11T05:28:08.935Z,23.57
2023-10-11T05:30:36.233Z,22.70
2023-10-11T05:33:03.041Z,22.87
2023-10-11T05:35:47.736Z,23.23
2023-10-11T05:38:34.862Z,22.70
2023-10-11T05:41:31.521Z,22.23
2023-10-11T05:44:17.859Z,22.83
2023-10-11T05:47:03.367Z,22.50
2023-10-11T05:49:49.764Z,23.47
2023-10-11T05:52:17.354Z,24.13
2023-10-11T05:54:46.869Z,23.37
2023-10-11T05:57:15.224Z,24.10
2023-10-11T05:59:48.482Z,22.20
2023-10-11T06:02:15.074Z,22.23
2023-10-11T06:04:42.111Z,22.77
2023-10-11T06:07:12.812Z,22.83
2023-10-11T06:09:47.098Z,22.40
2023-10-11T06:12:24.214Z,22.70
2023-10-11T06:14:52.499Z,21.27
2023-10-11T06:17:22.466Z,21.47
2023-10-11T06:19:55.414Z,21.13
2023-10-11T06:22:23.870Z,22.33
2023-10-11T06:24:50.705Z,21.03
2023-10-11T06:27:35.808Z,21.60
2023-10-11T06:30:07.562Z,20.97
2023-10-11T06:32:37.205Z,19.70
2023-10-11T06:35:06.858Z,21.70
2023-10-11T06:37:36.334Z,20.97
2023-10-11T06:40:03.198Z,20.67
2023-10-11T06:42:32.721Z,19.53
2023-10-11T06:45:07.416Z,20.43
2023-10-11T06:47:37.052Z,20.30
2023-10-11T06:50:12.278Z,19.20
2023-10-11T06:52:44.679Z,20.20
2023-10-11T06:55:18.802Z,18.50
2023-10-11T06:57:53.693Z,20.37
2023-10-11T07:00:24.150Z,18.73
2023-10-11T07:03:08.626Z,20.10
2023-10-11T07:05:43.211Z,19.13
2023-10-11T07:08:11.258Z,18.20
2023-10-11T07:10:42.966Z,18.00
2023-10-11T07:13:13.897Z,18.43
2023-10-11T07:15:45.580Z,18.03
2023-10-11T07:18:26.532Z,17.57
2023-10-11T07:21:07.156Z,18.40
2023-10-11T07:23:57.255Z,17.57
2023-10-11T07:26:31.810Z,18.47
2023-10-11T07:29:00.736Z,18.23
2023-10-11T07:31:33.594Z,17.03
2023-10-11T07:34:03.430Z,17.07
2023-10-11T07:36:32.523Z,16.17
2023-10-11T07:39:01.678Z,14.87
2023-10-11T07:41:31.556Z,15.03
2023-10-11T07:43:58.816Z,14.43
2023-10-11T07:46:29.732Z,15.73
2023-10-11T07:49:05.175Z,14.40
2023-10-11T07:51:37.320Z,13.93
2023-10-11T07:54:20.810Z,15.57
2023-10-11T07:56:50.222Z,14.43
2023-10-11T07:59:17.214Z,14.00
2023-10-11T08:01:46.840Z,13.40
2023-10-11T08:04:22.873Z,14.60
2023-10-11T08:07:04.935Z,13.37
2023-10-11T08:09:46.989Z,12.63
2023-10-11T08:12:16.343Z,12.70
2023-10-11T08:14:47.069Z,13.50
2023-10-11T08:17:18.914Z,12.30
2023-10-11T08:19:46.408Z,13.13
2023-10-11T08:22:15.670Z,12.43
2023-10-11T08:24:47.619Z,12.97
2023-10-11T08:27:23.938Z,13.27
2023-10-11T08:30:03.510Z,13.40
2023-10-11T08:32:31.147Z,12.37
2023-10-11T08:34:57.973Z,11.77
2023-10-11T08:37:25.017Z,10.87
2023-10-11T08:39:55.594Z,11.23
2023-10-11T08:42:24.105Z,11.23
2023-10-11T08:44:52.677Z,11.93
2023-10-11T08:47:20.690Z,12.37
2023-10-11T08:49:50.401Z,11.43
2023-10-11T08:52:25.973Z,11.90
2023-10-11T08:54:52.945Z,12.37
2023-10-11T08:57:24.647Z,12.50
2023-10-11T08:59:53.088Z,11.80
2023-10-11T09:02:20.648Z,11.47
2023-10-11T09:05:08.652Z,12.47
2023-10-11T09:07:41.182Z,11.60
2023-10-11T09:10:31.373Z,11.97
2023-10-11T09:13:02.304Z,10.67
2023-10-11T09:15:42.146Z,11.17
2023-10-11T09:18:21.340Z,11.40
2023-10-11T09:20:57.060Z,11.13
2023-10-11T09:23:40.085Z,11.10
2023-10-11T09:26:09.448Z,11.20
2023-10-11T09:28:42.118Z,11.23
2023-10-11T09:31:12.106Z,12.17
2023-10-11T09:33:51.570Z,11.37
2023-10-11T09:36:23.807Z,11.27
2023-10-11T09:38:55.923Z,10.10
2023-10-11T09:41:29.508Z,9.53
2023-10-11T09:44:00.817Z,10.57
2023-10-11T09:46:31.667Z,9.70
2023-10-11T09:49:01.272Z,10.10
2023-10-11T09:51:29.489Z,9.57
2023-10-11T09:54:02.854Z,9.07
2023-10-11T09:56:56.197Z,9.73
2023-10-11T09:59:29.289Z,10.30
2023-10-11T10:02:11.034Z,9.33
2023-10-11T10:04:52.679Z,8.93
2023-10-11T10:07:38.740Z,9.53
2023-10-11T10:10:05.931Z,8.50
2023-10-11T10:12:34.431Z,8.13
2023-10-11T10:15:09.390Z,8.20
2023-10-11T10:17:39.034Z,8.50
2023-10-11T10:20:34.293Z,8.67
2023-10-11T10:23:18.295Z,8.93
2023-10-11T10:25:48.995Z,8.47
2023-10-11T10:28:33.861Z,8.13
2023-10-11T10:31:11.200Z,8.00
2023-10-11T10:33:38.814Z,8.43
2023-10-11T10:36:21.684Z,7.87
2023-10-11T10:39:26.093Z,7.90
2023-10-11T10:42:13.651Z,8.13
2023-10-11T10:44:50.747Z,9.20
2023-10-11T10:47:30.640Z,7.57
2023-10-11T10:49:58.301Z,7.23
2023-10-11T10:52:29.100Z,7.43
2023-10-11T10:55:04.627Z,7.33
2023-10-11T10:57:38.361Z,7.10
2023-10-11T11:00:08.914Z,7.13
2023-10-11T11:02:39.016Z,6.60
2023-10-11T11:05:17.172Z,7.17
2023-10-11T11:07:53.148Z,6.97
2023-10-11T11:10:26.099Z,6.73
2023-10-11T11:12:53.033Z,6.70
2023-10-11T11:15:22.553Z,7.10
2023-10-11T11:17:51.484Z,6.47
2023-10-11T11:20:30.907Z,6.33
2023-10-11T11:22:57.558Z,6.43
2023-10-11T11:25:32.446Z,6.90
2023-10-11T11:28:26.352Z,5.70
2023-10-11T11:30:53.063Z,7.40
2023-10-11T11:33:32.788Z,6.57
2023-10-11T11:35:59.385Z,6.43
2023-10-11T11:38:30.936Z,6.57
2023-10-11T11:41:14.832Z,6.00
2023-10-11T11:43:47.931Z,6.33
2023-10-11T11:46:17.201Z,6.60
2023-10-11T11:48:44.681Z,6.27
2023-10-11T11:51:15.310Z,6.40
2023-10-11T11:53:44.655Z,7.27
2023-10-11T11:56:12.755Z,6.10
2023-10-11T11:58:46.896Z,5.87
2023-10-11T12:01:17.807Z,6.07
2023-10-11T12:03:53.602Z,6.20
2023-10-11T12:06:24.731Z,5.93
2023-10-11T12:08:59.539Z,6.70
2023-10-11T12:11:32.032Z,6.63
2023-10-11T12:14:01.383Z,7.57
2023-10-11T12:16:30.645Z,7.70
2023-10-11T12:19:00.937Z,5.83
2023-10-11T12:21:30.396Z,7.60
2023-10-11T12:23:58.727Z,8.30
2023-10-11T12:26:28.256Z,9.27
2023-10-11T12:28:55.972Z,7.97
2023-10-11T12:31:22.773Z,7.87
2023-10-11T12:33:49.526Z,6.33
2023-10-11T12:36:21.615Z,5.70
2023-10-11T12:38:50.231Z,5.60
2023-10-11T12:41:17.427Z,5.60
2023-10-11T12:43:47.058Z,5.20
2023-10-11T12:46:16.993Z,4.90
2023-10-11T12:48:46.246Z,5.10
2023-10-11T12:51:12.957Z,4.97
2023-10-11T12:53:39.544Z,5.00
2023-10-11T12:56:09.142Z,5.30
2023-10-11T12:58:41.938Z,5.37
2023-10-11T13:01:15.061Z,4.50
2023-10-11T13:03:44.126Z,4.80
2023-10-11T13:06:11.703Z,5.17
2023-10-11T13:08:39.140Z,4.93
2023-10-11T13:11:14.448Z,5.47
2023-10-11T13:13:45.053Z,5.53
2023-10-11T13:16:23.752Z,5.30
2023-10-11T13:18:50.342Z,5.23
2023-10-11T13:21:18.083Z,4.93
2023-10-11T13:23:45.330Z,5.03
2023-10-11T13:26:19.674Z,5.00
2023-10-11T13:28:54.658Z,5.03
2023-10-11T13:31:21.534Z,5.80
2023-10-11T13:33:48.223Z,5.43
2023-10-11T13:36:15.423Z,5.43
2023-10-11T13:38:46.286Z,5.23
2023-10-11T13:41:13.835Z,5.40
2023-10-11T13:43:41.697Z,4.57
2023-10-11T13:46:08.958Z,5.03
2023-10-11T13:48:41.396Z,5.07
2023-10-11T13:51:10.852Z,4.73
2023-10-11T13:53:43.229Z,4.60
2023-10-11T13:56:23.186Z,5.27
2023-10-11T13:58:52.828Z,5.20
2023-10-11T14:01:47.025Z,6.30
2023-10-11T14:04:18.376Z,5.23
2023-10-11T14:07:01.373Z,5.23
2023-10-11T14:09:31.836Z,5.03
2023-10-11T14:11:58.548Z,5.13
2023-10-11T14:14:26.091Z,5.40
2023-10-11T14:16:53.955Z,4.90
2023-10-11T14:19:25.995Z,5.60
2023-10-11T14:21:53.408Z,5.00
2023-10-11T14:24:20.790Z,5.07
2023-10-11T14:26:48.924Z,5.57
2023-10-11T14:29:17.375Z,4.70
2023-10-11T14:31:44.612Z,5.43
2023-10-11T14:34:12.231Z,5.73
2023-10-11T14:36:42.500Z,5.20
2023-10-11T14:39:19.594Z,4.70
2023-10-11T14:41:52.126Z,5.17
2023-10-11T14:44:19.172Z,5.70
2023-10-11T14:46:46.288Z,5.13
2023-10-11T14:49:13.270Z,5.23
2023-10-11T14:51:41.217Z,5.30
2023-10-11T14:54:08.033Z,5.60
2023-10-11T14:56:35.417Z,5.67
2023-10-11T14:59:02.653Z,6.50
2023-10-11T15:01:35.004Z,5.60
2023-10-11T15:04:10.927Z,5.50
2023-10-11T15:06:47.085Z,6.53
2023-10-11T15:09:15.011Z,5.50
2023-10-11T15:11:41.717Z,5.83
2023-10-11T15:14:08.486Z,5.53
2023-10-11T15:16:36.882Z,6.03
2023-10-11T15:19:10.869Z,6.57
2023-10-11T15:21:40.665Z,6.33
2023-10-11T15:24:14.541Z,5.67
2023-10-11T15:26:41.600Z,5.83
2023-10-11T15:29:08.255Z,5.83
2023-10-11T15:31:35.481Z,5.90
2023-10-11T15:34:05.170Z,5.53
2023-10-11T15:36:31.923Z,5.27
2023-10-11T15:38:58.856Z,5.50
2023-10-11T15:41:25.619Z,5.43
2023-10-11T15:43:53.424Z,5.50
2023-10-11T15:46:23.082Z,5.40
2023-10-11T15:48:50.881Z,5.83
2023-10-11T15:51:20.645Z,6.17
2023-10-11T15:53:47.209Z,5.97
2023-10-11T15:56:15.905Z,7.13
2023-10-11T15:58:45.545Z,6.70
2023-10-11T16:01:15.640Z,5.93
2023-10-11T16:03:45.456Z,6.47
2023-10-11T16:06:13.643Z,6.10
2023-10-11T16:08:40.481Z,5.37
2023-10-11T16:11:14.585Z,5.93
2023-10-11T16:13:42.466Z,5.80
2023-10-11T16:16:09.818Z,6.30
2023-10-11T16:18:38.389Z,6.00
2023-10-11T16:21:05.113Z,6.23
2023-10-11T16:23:33.624Z,6.10
2023-10-11T16:26:02.483Z,5.90
2023-10-11T16:28:31.182Z,5.63
2023-10-11T16:30:59.393Z,6.50
2023-10-11T16:33:27.767Z,6.63
2023-10-11T16:35:55.073Z,5.77
2023-10-11T16:38:22.185Z,6.00
2023-10-11T16:40:49.114Z,5.77
2023-10-11T16:43:15.773Z,6.80
2023-10-11T16:45:42.974Z,6.00
2023-10-11T16:48:13.984Z,6.37
2023-10-11T16:50:41.427Z,6.30
2023-10-11T16:53:09.371Z,6.73
2023-10-11T16:55:37.000Z,7.07
2023-10-11T16:58:06.843Z,7.77
2023-10-11T17:00:36.316Z,6.50
2023-10-11T17:03:04.671Z,6.67
2023-10-11T17:05:35.638Z,6.67
2023-10-11T17:08:02.979Z,7.03
2023-10-11T17:10:32.178Z,7.13
2023-10-11T17:13:00.396Z,7.10
2023-10-11T17:15:27.315Z,6.67
2023-10-11T17:17:55.043Z,6.47
2023-10-11T17:20:26.069Z,7.23
2023-10-11T17:22:53.493Z,6.40
2023-10-11T17:25:21.337Z,7.23
2023-10-11T17:27:51.594Z,7.33
2023-10-11T17:30:23.034Z,6.93
2023-10-11T17:32:49.738Z,6.77
2023-10-11T17:35:17.298Z,6.73
2023-10-11T17:37:48.174Z,6.77
2023-10-11T17:40:19.323Z,6.40
2023-10-11T17:42:47.258Z,6.30
2023-10-11T17:45:15.182Z,6.00
2023-10-11T17:47:44.425Z,6.97
2023-10-11T17:50:14.697Z,6.60
2023-10-11T17:52:42.777Z,6.50
2023-10-11T17:55:15.336Z,7.40
2023-10-11T17:57:46.467Z,6.53
2023-10-11T18:00:28.087Z,6.70
2023-10-11T18:02:56.285Z,7.43
2023-10-11T18:05:23.454Z,7.23
2023-10-11T18:07:51.446Z,7.10
2023-10-11T18:10:19.923Z,6.90
2023-10-11T18:12:48.770Z,7.00
2023-10-11T18:15:19.002Z,7.37
2023-10-11T18:17:50.661Z,6.40
2023-10-11T18:20:22.115Z,6.03
2023-10-11T18:22:49.337Z,6.97
2023-10-11T18:25:17.840Z,5.77
2023-10-11T18:27:46.774Z,6.90
2023-10-11T18:30:14.567Z,6.93
2023-10-11T18:32:41.833Z,6.60
2023-10-11T18:35:09.334Z,6.47
2023-10-11T18:37:37.099Z,6.70
2023-10-11T18:40:09.256Z,6.43
2023-10-11T18:42:41.189Z,6.17
2023-10-11T18:45:12.713Z,6.80
2023-10-11T18:47:41.030Z,6.23
2023-10-11T18:50:08.286Z,6.37
2023-10-11T18:52:37.559Z,6.13
2023-10-11T18:55:09.769Z,5.73
2023-10-11T18:57:37.425Z,5.80
2023-10-11T19:00:31.889Z,6.30
2023-10-11T19:02:58.478Z,6.53
2023-10-11T19:05:27.852Z,5.73
2023-10-11T19:07:59.935Z,5.90
2023-10-11T19:10:30.984Z,6.30
2023-10-11T19:12:59.008Z,6.17
2023-10-11T19:15:30.313Z,5.60
2023-10-11T19:17:57.598Z,6.13
2023-10-11T19:20:30.932Z,5.63
2023-10-11T19:23:01.853Z,5.33
2023-10-11T19:25:30.015Z,5.67
2023-10-11T19:27:59.652Z,6.47
2023-10-11T19:30:26.595Z,6.10
2023-10-11T19:32:53.199Z,5.77
2023-10-11T19:35:25.017Z,6.17
2023-10-11T19:37:52.573Z,5.60
2023-10-11T19:40:39.845Z,5.97
2023-10-11T19:43:07.702Z,5.80
2023-10-11T19:45:34.556Z,6.50
2023-10-11T19:48:01.155Z,5.97
2023-10-11T19:50:28.095Z,6.07
2023-10-11T19:52:55.910Z,6.07
2023-10-11T19:55:23.730Z,6.00
2023-10-11T19:57:55.307Z,6.57
2023-10-11T20:00:23.950Z,6.80
2023-10-11T20:02:52.054Z,6.03
2023-10-11T20:05:21.691Z,6.37
2023-10-11T20:07:48.929Z,6.17
2023-10-11T20:10:16.259Z,6.33
2023-10-11T20:12:46.343Z,6.37
2023-10-11T20:15:14.316Z,6.50
2023-10-11T20:17:52.406Z,6.40
2023-10-11T20:20:20.864Z,6.30
2023-10-11T20:22:49.823Z,6.10
2023-10-11T20:25:19.543Z,6.70
2023-10-11T20:27:51.585Z,5.90
2023-10-11T20:30:20.816Z,5.93
2023-10-11T20:32:48.771Z,6.47
2023-10-11T20:35:16.819Z,6.47
2023-10-11T20:37:43.599Z,6.53
2023-10-11T20:40:14.478Z,6.30
2023-10-11T20:42:43.232Z,6.80
2023-10-11T20:45:16.402Z,6.00
2023-10-11T20:47:44.574Z,6.07
2023-10-11T20:50:17.158Z,6.33
2023-10-11T20:52:51.510Z,5.93
2023-10-11T20:55:24.459Z,6.07
2023-10-11T20:58:15.324Z,5.77
2023-10-11T21:00:50.002Z,6.03
2023-10-11T21:03:21.700Z,7.20
2023-10-11T21:05:52.834Z,6.47
2023-10-11T21:08:22.866Z,6.67
2023-10-11T21:10:50.405Z,6.67
2023-10-11T21:13:22.824Z,6.03
2023-10-11T21:15:51.808Z,6.63
2023-10-11T21:18:22.333Z,6.40
2023-10-11T21:20:53.187Z,6.17
2023-10-11T21:23:21.561Z,6.90
2023-10-11T21:25:56.782Z,6.60
2023-10-11T21:28:25.249Z,6.37
2023-10-11T21:30:52.134Z,6.53
2023-10-11T21:33:19.649Z,6.57
2023-10-11T21:35:46.635Z,6.30
2023-10-11T21:38:13.669Z,6.43
2023-10-11T21:40:43.098Z,6.77
2023-10-11T21:43:13.701Z,7.23
2023-10-11T21:45:41.451Z,6.50
2023-10-11T21:48:10.789Z,6.77
2023-10-11T21:50:38.469Z,6.27
2023-10-11T21:53:05.328Z,5.37
2023-10-11T21:55:33.733Z,6.67
2023-10-11T21:58:00.754Z,6.10
2023-10-11T22:00:47.952Z,7.17
2023-10-11T22:03:21.792Z,6.73
2023-10-11T22:05:51.935Z,6.03
2023-10-11T22:08:20.307Z,6.63
2023-10-11T22:10:46.978Z,6.27
2023-10-11T22:13:21.088Z,6.60
2023-10-11T22:15:48.412Z,6.57
2023-10-11T22:18:17.983Z,6.83
2023-10-11T22:20:47.432Z,6.40
2023-10-11T22:23:14.377Z,6.67
2023-10-11T22:25:42.462Z,6.83
2023-10-11T22:28:09.660Z,6.93
2023-10-11T22:30:41.616Z,6.50
2023-10-11T22:33:11.276Z,6.40
2023-10-11T22:35:43.712Z,6.03
2023-10-11T22:38:10.646Z,7.30
2023-10-11T22:40:40.915Z,6.40
2023-10-11T22:45:40.189Z,6.37
2023-10-11T22:48:07.224Z,5.80
2023-10-11T22:50:34.885Z,6.80
2023-10-11T22:53:02.717Z,7.10
2023-10-11T22:55:33.152Z,6.70
2023-10-11T22:58:03.812Z,6.00
2023-10-11T23:00:34.242Z,6.80
2023-10-11T23:03:02.566Z,6.13
2023-10-11T23:05:31.661Z,6.10
2023-10-11T23:07:58.864Z,6.37
2023-10-11T23:10:27.148Z,6.40
2023-10-11T23:12:57.597Z,7.33
2023-10-11T23:15:34.991Z,6.93
2023-10-11T23:18:14.472Z,6.53
2023-10-11T23:20:47.122Z,6.50
2023-10-11T23:23:22.364Z,6.80
2023-10-11T23:25:59.377Z,5.73
2023-10-11T23:28:26.443Z,6.17
2023-10-11T23:30:56.403Z,6.87
2023-10-11T23:33:35.330Z,7.00
2023-10-11T23:36:11.793Z,7.10
2023-10-11T23:38:51.587Z,6.67
2023-10-11T23:41:21.157Z,6.07
2023-10-11T23:44:00.408Z,6.57
2023-10-11T23:46:36.758Z,7.03
2023-10-11T23:49:09.938Z,6.73
2023-10-11T23:51:40.941Z,6.73
2023-10-11T23:54:12.539Z,6.90
2023-10-11T23:56:45.453Z,6.97
2023-10-11T23:59:17.730Z,6.70
